Time;durP1;ratioP1;P1;durP2;ratioP2;P2;SDS_P1;SDS_P2;PMS_P1;PMS_P2;Temp;Humidity;BMP_temperature;BMP_pressure;BME280_temperature;BME280_humidity;BME280_pressure;Samples;Min_cycle;Max_cycle;Signal;HPM_P1;HPM_P2
2022/10/07 00:01:43;;;;;;;4.37;3.23;;;;;;;4.60;100.00;102231.41;4967647;28;20225;-73
2022/10/07 00:04:09;;;;;;;4.17;2.57;;;;;;;4.53;100.00;102226.09;4953708;29;20190;-72
2022/10/07 00:06:36;;;;;;;6.20;2.73;;;;;;;4.60;100.00;102228.84;4968463;28;20222;-72
2022/10/07 00:09:02;;;;;;;4.70;2.77;;;;;;;4.55;100.00;102227.00;4972031;28;20193;-72
2022/10/07 00:11:29;;;;;;;3.67;2.93;;;;;;;4.58;100.00;102231.38;4958565;28;20195;-72
2022/10/07 00:13:59;;;;;;;3.80;2.73;;;;;;;4.53;100.00;102223.50;4947906;28;20679;-72
2022/10/07 00:16:28;;;;;;;4.83;2.90;;;;;;;4.48;100.00;102221.66;4971921;28;20195;-72
2022/10/07 00:18:56;;;;;;;2.93;2.40;;;;;;;4.47;100.00;102218.19;4954389;28;20217;-72
2022/10/07 00:21:23;;;;;;;5.67;2.80;;;;;;;4.51;100.00;102221.72;4971830;28;20203;-72
2022/10/07 00:23:50;;;;;;;3.97;2.87;;;;;;;4.52;100.00;102226.03;4971748;28;20677;-72
2022/10/07 00:26:18;;;;;;;4.63;2.97;;;;;;;4.44;100.00;102219.84;4971606;28;20210;-72
2022/10/07 00:28:45;;;;;;;5.07;2.87;;;;;;;4.59;100.00;102222.81;4954675;28;20202;-73
2022/10/07 00:31:15;;;;;;;4.67;2.67;;;;;;;4.33;100.00;102217.84;4951024;29;20213;-72
2022/10/07 00:33:43;;;;;;;4.37;2.53;;;;;;;4.35;100.00;102220.47;4949661;28;20856;-72
2022/10/07 00:36:12;;;;;;;2.67;2.27;;;;;;;4.33;100.00;102219.56;4972048;28;20690;-72
2022/10/07 00:38:39;;;;;;;4.73;3.17;;;;;;;4.27;100.00;102222.84;4970168;28;20237;-72
2022/10/07 00:41:08;;;;;;;3.80;2.63;;;;;;;4.24;100.00;102221.91;4970843;28;20190;-73
2022/10/07 00:43:35;;;;;;;3.77;2.77;;;;;;;4.09;100.00;102212.94;4966804;28;20202;-72
2022/10/07 00:46:07;;;;;;;3.63;2.70;;;;;;;4.06;100.00;102209.41;4962740;28;20213;-72
2022/10/07 00:48:38;;;;;;;4.77;2.60;;;;;;;4.23;100.00;102208.13;4955769;28;20607;-72
2022/10/07 00:51:06;;;;;;;5.80;2.47;;;;;;;4.12;100.00;102204.41;4970268;28;20213;-72
2022/10/07 00:53:35;;;;;;;7.07;3.00;;;;;;;4.15;100.00;102209.63;4950180;28;20252;-73
2022/10/07 00:56:03;;;;;;;4.70;2.90;;;;;;;4.09;100.00;102212.94;4964622;28;20291;-73
2022/10/07 00:58:33;;;;;;;3.43;2.27;;;;;;;4.15;100.00;102200.19;4953672;28;20237;-72
2022/10/07 01:01:00;;;;;;;5.20;3.20;;;;;;;4.13;100.00;102188.97;4953577;28;20212;-72
2022/10/07 01:03:26;;;;;;;5.80;2.77;;;;;;;4.22;100.00;102190.00;4946853;28;20213;-72
2022/10/07 01:05:54;;;;;;;3.33;2.63;;;;;;;4.20;100.00;102189.09;4938187;29;20245;-72
2022/10/07 01:08:22;;;;;;;3.77;2.97;;;;;;;4.14;100.00;102184.66;4947444;29;20247;-72
2022/10/07 01:10:59;;;;;;;4.70;2.77;;;;;;;4.10;100.00;102175.13;4949062;29;20327;-72
2022/10/07 01:13:32;;;;;;;3.67;2.37;;;;;;;4.17;100.00;102177.88;4939046;29;20648;-72
2022/10/07 01:16:03;;;;;;;3.93;2.33;;;;;;;4.14;100.00;102184.66;4934520;29;20206;-72
2022/10/07 01:18:36;;;;;;;7.47;3.00;;;;;;;4.12;100.00;102171.72;4949816;29;20330;-72
2022/10/07 01:21:11;;;;;;;3.10;2.67;;;;;;;4.12;100.00;102173.44;4948737;29;20202;-72
2022/10/07 01:24:06;;;;;;;5.53;3.03;;;;;;;4.06;100.00;102168.09;4950672;29;20205;-72
2022/10/07 01:26:50;;;;;;;3.40;2.70;;;;;;;4.10;100.00;102162.19;4947319;29;20215;-72
2022/10/07 01:29:22;;;;;;;3.53;2.83;;;;;;;4.08;100.00;102156.09;4940628;28;20680;-72
2022/10/07 01:31:56;;;;;;;4.07;2.97;;;;;;;4.07;100.00;102156.97;4932801;29;20200;-72
2022/10/07 01:34:26;;;;;;;4.50;2.90;;;;;;;3.97;100.00;102159.31;4946385;29;20203;-72
2022/10/07 01:36:55;;;;;;;3.13;2.60;;;;;;;3.95;100.00;102158.38;4924856;29;20228;-72
2022/10/07 01:39:28;;;;;;;2.93;2.50;;;;;;;3.94;100.00;102153.16;4931348;29;20286;-72
2022/10/07 01:41:57;;;;;;;4.80;2.53;;;;;;;3.99;100.00;102149.00;4938734;29;20281;-72
2022/10/07 01:44:26;;;;;;;2.97;2.40;;;;;;;3.88;100.00;102145.28;4934487;29;20200;-72
2022/10/07 01:46:52;;;;;;;5.33;2.33;;;;;;;3.86;100.00;102140.09;4931219;29;20231;-73
2022/10/07 01:49:20;;;;;;;3.97;2.67;;;;;;;3.90;100.00;102143.59;4951282;28;20294;-72
2022/10/07 01:52:01;;;;;;;3.30;2.53;;;;;;;3.88;100.00;102147.88;4961947;28;20210;-72
2022/10/07 01:54:40;;;;;;;2.73;2.23;;;;;;;3.86;100.00;102142.66;4934433;29;20369;-72
2022/10/07 01:57:21;;;;;;;3.27;2.40;;;;;;;3.83;100.00;102136.56;4940404;29;20257;-72
2022/10/07 02:00:02;;;;;;;3.73;2.63;;;;;;;3.78;100.00;102131.25;4932595;29;20203;-72
2022/10/07 02:03:05;;;;;;;7.87;2.40;;;;;;;3.91;100.00;102132.47;4951868;29;20201;-73
2022/10/07 02:05:47;;;;;;;4.17;2.27;;;;;;;3.87;100.00;102123.78;4937788;29;20203;-72
2022/10/07 02:08:25;;;;;;;3.13;2.67;;;;;;;3.83;100.00;102121.94;4987780;23;20649;-72
2022/10/07 02:11:10;;;;;;;4.57;2.63;;;;;;;3.82;100.00;102120.19;4957363;28;20599;-70
2022/10/07 02:13:47;;;;;;;2.37;2.10;;;;;;;3.83;100.00;102121.94;4980508;28;20206;-71
2022/10/07 02:16:18;;;;;;;4.70;2.60;;;;;;;3.83;100.00;102119.34;4974948;28;20194;-71
2022/10/07 02:18:49;;;;;;;4.17;2.23;;;;;;;3.75;100.00;102120.88;4951393;28;20226;-71
2022/10/07 02:21:21;;;;;;;3.33;2.07;;;;;;;3.72;100.00;102113.91;4947716;28;20623;-71
2022/10/07 02:23:50;;;;;;;2.67;2.07;;;;;;;3.74;100.00;102117.41;4953057;28;20218;-70
2022/10/07 02:26:20;;;;;;;4.10;2.33;;;;;;;3.76;100.00;102109.72;4954542;28;20196;-71
2022/10/07 02:28:52;;;;;;;2.90;2.27;;;;;;;3.79;100.00;102113.25;4949809;29;20310;-70
2022/10/07 02:31:24;;;;;;;3.40;2.53;;;;;;;3.89;100.00;102108.34;4953146;28;20293;-71
2022/10/07 02:33:52;;;;;;;3.13;2.23;;;;;;;3.87;100.00;102108.28;4949539;28;20649;-70
2022/10/07 02:36:25;;;;;;;3.50;2.30;;;;;;;3.79;100.00;102108.09;4963404;28;20214;-72
2022/10/07 02:38:53;;;;;;;4.30;2.73;;;;;;;3.67;100.00;102109.47;4957950;28;20608;-71
2022/10/07 02:41:31;;;;;;;6.23;2.37;;;;;;;3.76;100.00;102101.97;4942663;28;20211;-71
2022/10/07 02:44:18;;;;;;;2.47;2.00;;;;;;;3.73;100.00;102113.09;4961549;28;20198;-70
2022/10/07 02:46:48;;;;;;;2.60;2.30;;;;;;;3.73;100.00;102097.63;4947230;29;20202;-70
2022/10/07 02:49:17;;;;;;;4.73;2.73;;;;;;;3.68;100.00;102098.34;4980452;28;20210;-71
2022/10/07 02:51:47;;;;;;;7.23;2.47;;;;;;;3.61;100.00;102102.47;4952120;29;20697;-70
2022/10/07 02:54:18;;;;;;;4.33;2.23;;;;;;;3.62;100.00;102096.44;4953685;28;20298;-70
2022/10/07 02:56:47;;;;;;;2.97;2.43;;;;;;;3.63;100.00;102099.94;4954213;28;20568;-71
2022/10/07 02:59:17;;;;;;;3.50;2.60;;;;;;;3.60;100.00;102093.81;4955464;28;20205;-70
2022/10/07 03:01:50;;;;;;;3.27;2.50;;;;;;;3.56;100.00;102093.72;4955940;28;20217;-70
2022/10/07 03:04:17;;;;;;;3.90;2.20;;;;;;;3.62;100.00;102088.72;4956002;28;20263;-72
2022/10/07 03:06:44;;;;;;;3.07;2.63;;;;;;;3.62;100.00;102093.00;4960527;28;20229;-70
2022/10/07 03:09:13;;;;;;;3.40;2.27;;;;;;;3.62;100.00;102093.00;4956519;28;20309;-71
2022/10/07 03:11:41;;;;;;;8.53;2.80;;;;;;;3.57;100.00;102087.72;4970799;28;20632;-71
2022/10/07 03:14:09;;;;;;;6.97;2.40;;;;;;;3.58;100.00;102081.75;4945766;28;20197;-71
2022/10/07 03:16:36;;;;;;;3.93;2.40;;;;;;;3.48;100.00;102078.03;4952677;28;20209;-72
2022/10/07 03:19:03;;;;;;;3.10;2.03;;;;;;;3.47;100.00;102078.88;4947387;28;20503;-70
2022/10/07 03:21:49;;;;;;;3.00;2.30;;;;;;;3.39;100.00;102077.81;4950497;28;20414;-70
2022/10/07 03:24:15;;;;;;;4.97;2.20;;;;;;;3.52;100.00;102077.31;4952374;28;20240;-70
2022/10/07 03:26:45;;;;;;;2.63;1.70;;;;;;;3.47;100.00;102067.72;4952916;28;20705;-70
2022/10/07 03:29:14;;;;;;;2.50;1.93;;;;;;;3.30;100.00;102075.84;4952356;28;20199;-70
2022/10/07 03:31:42;;;;;;;2.77;2.20;;;;;;;3.33;100.00;102072.50;4948472;28;20202;-70
2022/10/07 03:34:10;;;;;;;3.90;2.57;;;;;;;3.34;100.00;102074.22;4967772;28;20186;-70
2022/10/07 03:36:37;;;;;;;4.10;2.50;;;;;;;3.40;100.00;102071.81;4950330;28;20206;-70
2022/10/07 03:39:05;;;;;;;3.30;2.20;;;;;;;3.41;100.00;102076.13;4952875;28;20241;-71
2022/10/07 03:41:32;;;;;;;3.03;2.37;;;;;;;3.42;100.00;102072.72;4953762;28;20194;-71
2022/10/07 03:44:00;;;;;;;5.33;2.40;;;;;;;3.42;100.00;102075.31;4953319;28;20660;-72
2022/10/07 03:46:28;;;;;;;2.53;1.93;;;;;;;3.40;100.00;102064.09;4952371;28;20227;-70
2022/10/07 03:48:57;;;;;;;3.80;2.47;;;;;;;3.36;100.00;102062.25;4949584;28;20227;-71
2022/10/07 03:51:24;;;;;;;3.37;2.30;;;;;;;3.32;100.00;102069.03;4947779;28;20194;-72
2022/10/07 03:53:56;;;;;;;3.33;2.93;;;;;;;3.38;100.00;102058.03;4952982;28;20206;-72
2022/10/07 03:56:24;;;;;;;3.17;2.20;;;;;;;3.37;100.00;102062.28;4952557;28;20618;-71
2022/10/07 03:58:51;;;;;;;3.43;2.80;;;;;;;3.35;100.00;102057.94;4952419;28;20225;-70
2022/10/07 04:01:18;;;;;;;4.63;3.13;;;;;;;3.32;100.00;102052.69;4951000;28;20201;-71
2022/10/07 04:03:56;;;;;;;7.13;2.53;;;;;;;3.33;100.00;102052.72;4937998;28;20213;-71
2022/10/07 04:06:24;;;;;;;5.83;2.73;;;;;;;3.28;100.00;102044.00;4976119;28;20213;-70
2022/10/07 04:08:52;;;;;;;5.17;2.73;;;;;;;3.22;100.00;102042.13;4951260;28;20233;-71
2022/10/07 04:11:19;;;;;;;5.47;2.67;;;;;;;3.31;100.00;102046.66;4950740;28;20240;-71
2022/10/07 04:13:46;;;;;;;3.90;2.93;;;;;;;3.33;100.00;102049.28;4950866;28;20206;-72
2022/10/07 04:16:14;;;;;;;4.13;2.80;;;;;;;3.27;100.00;102047.41;4951783;28;20201;-70
2022/10/07 04:18:42;;;;;;;5.13;2.90;;;;;;;3.27;100.00;102041.38;4944169;28;20249;-72
2022/10/07 04:21:11;;;;;;;10.60;4.90;;;;;;;3.28;100.00;102041.44;4964236;28;20669;-71
2022/10/07 04:23:40;;;;;;;8.80;4.30;;;;;;;3.28;100.00;102041.44;4967375;28;20200;-71
2022/10/07 04:26:08;;;;;;;9.40;4.30;;;;;;;3.35;100.00;102039.88;4950768;28;20219;-71
2022/10/07 04:28:35;;;;;;;7.53;4.17;;;;;;;3.27;100.00;102038.81;4947831;28;20222;-71
2022/10/07 04:31:08;;;;;;;10.90;5.03;;;;;;;3.23;100.00;102032.69;4950288;28;20434;-72
2022/10/07 04:33:39;;;;;;;9.43;5.23;;;;;;;3.20;100.00;102035.19;4965463;28;20250;-72
2022/10/07 04:36:08;;;;;;;11.27;5.37;;;;;;;3.09;100.00;102032.31;4967520;28;20700;-72
2022/10/07 04:38:41;;;;;;;13.87;5.73;;;;;;;3.10;100.00;102028.06;4949251;28;20222;-71
2022/10/07 04:41:09;;;;;;;11.10;5.33;;;;;;;3.15;100.00;102026.44;4958273;28;20201;-72
2022/10/07 04:43:37;;;;;;;11.63;5.80;;;;;;;3.19;100.00;102026.59;4947393;28;20262;-71
2022/10/07 04:46:09;;;;;;;13.57;5.67;;;;;;;3.14;100.00;102025.59;4945903;28;20210;-72
2022/10/07 04:48:44;;;;;;;12.63;6.03;;;;;;;3.15;100.00;102023.88;4949962;28;20277;-71
2022/10/07 04:51:12;;;;;;;12.13;5.40;;;;;;;3.15;100.00;102019.63;4954269;28;20198;-72
2022/10/07 04:53:42;;;;;;;11.47;5.83;;;;;;;3.14;100.00;102019.56;4957497;28;20202;-71
2022/10/07 04:56:10;;;;;;;9.50;5.17;;;;;;;3.16;100.00;102003.28;4951106;28;20205;-72
2022/10/07 04:58:37;;;;;;;11.80;5.00;;;;;;;3.09;100.00;102016.00;4957776;28;20637;-72
2022/10/07 05:01:08;;;;;;;10.43;5.07;;;;;;;3.10;100.00;102015.19;4950607;28;20440;-70
2022/10/07 05:03:38;;;;;;;7.47;4.30;;;;;;;3.10;100.00;102008.31;4940768;28;20210;-71
2022/10/07 05:06:06;;;;;;;11.50;5.50;;;;;;;3.17;100.00;102006.78;4949771;28;20201;-70
2022/10/07 05:08:34;;;;;;;11.00;4.53;;;;;;;3.12;100.00;101998.91;4968355;28;20291;-72
2022/10/07 05:11:03;;;;;;;15.10;5.40;;;;;;;3.08;100.00;101993.63;4959642;28;20210;-71
2022/10/07 05:13:37;;;;;;;9.87;4.83;;;;;;;3.18;100.00;101991.34;4970041;28;20209;-71
2022/10/07 05:16:06;;;;;;;7.33;3.90;;;;;;;3.13;100.00;101992.03;4978567;28;20193;-71
2022/10/07 05:18:34;;;;;;;8.27;4.80;;;;;;;3.11;100.00;101991.13;4971662;28;20213;-69
2022/10/07 05:21:04;;;;;;;7.93;4.67;;;;;;;3.25;100.00;101994.06;4976063;28;20420;-72
2022/10/07 05:23:31;;;;;;;10.50;5.17;;;;;;;3.05;100.00;101988.41;4972106;28;20212;-72
2022/10/07 05:26:06;;;;;;;9.03;4.83;;;;;;;2.96;100.00;101994.19;4968945;28;20200;-72
2022/10/07 05:28:34;;;;;;;8.77;5.17;;;;;;;3.02;100.00;101984.88;4973384;28;20227;-71
2022/10/07 05:31:05;;;;;;;8.30;4.67;;;;;;;2.98;100.00;101987.38;4959604;28;20189;-71
2022/10/07 05:33:32;;;;;;;8.77;4.50;;;;;;;3.06;100.00;101983.28;4976947;28;20305;-70
2022/10/07 05:35:59;;;;;;;9.87;4.30;;;;;;;3.16;100.00;101977.53;4970697;28;20201;-72
2022/10/07 05:38:27;;;;;;;8.63;4.57;;;;;;;3.17;100.00;101978.41;4976059;28;20286;-71
2022/10/07 05:40:58;;;;;;;9.67;3.97;;;;;;;3.21;100.00;101981.09;4983404;28;20201;-71
2022/10/07 05:43:29;;;;;;;11.33;4.70;;;;;;;3.23;100.00;101981.13;4969361;28;20414;-71
2022/10/07 05:46:01;;;;;;;8.90;4.83;;;;;;;3.31;100.00;101981.34;4977178;28;20223;-69
2022/10/07 05:48:30;;;;;;;9.57;4.80;;;;;;;3.28;100.00;101976.13;4970918;28;20213;-71
2022/10/07 05:50:58;;;;;;;6.60;4.13;;;;;;;3.45;100.00;101980.00;4969581;28;20237;-70
2022/10/07 05:53:25;;;;;;;7.30;4.07;;;;;;;3.50;100.00;101973.25;4975203;28;20197;-71
2022/10/07 05:55:52;;;;;;;6.00;3.80;;;;;;;3.59;100.00;101976.03;4974354;28;20198;-72
2022/10/07 05:58:19;;;;;;;9.20;4.10;;;;;;;3.58;100.00;101966.53;4973989;28;20221;-70
2022/10/07 06:00:54;;;;;;;6.37;3.77;;;;;;;3.67;100.00;101962.44;4971092;28;20201;-70
2022/10/07 06:03:22;;;;;;;7.60;4.23;;;;;;;3.71;100.00;101966.84;4986214;28;20217;-72
2022/10/07 06:05:50;;;;;;;7.77;4.37;;;;;;;3.85;100.00;101967.16;4972246;28;20215;-70
2022/10/07 06:08:18;;;;;;;5.20;3.67;;;;;;;3.89;100.00;101969.00;4992287;28;20237;-71
2022/10/07 06:13:32;;;;;;;7.17;3.63;;;;;;;4.06;100.00;101966.78;4973661;28;20228;-70
2022/10/07 06:16:02;;;;;;;6.53;3.83;;;;;;;4.16;100.00;101966.13;4990862;28;20204;-70
2022/10/07 06:18:29;;;;;;;5.90;3.67;;;;;;;4.26;100.00;101964.63;4972432;28;20735;-71
2022/10/07 06:20:57;;;;;;;5.53;3.77;;;;;;;4.43;100.00;101967.56;4971260;28;20294;-69
2022/10/07 06:23:25;;;;;;;5.37;3.40;;;;;;;4.54;100.00;101966.09;4961292;28;20276;-72
2022/10/07 06:25:55;;;;;;;5.23;3.13;;;;;;;4.66;100.00;101966.31;4990491;28;20725;-71
2022/10/07 06:28:21;;;;;;;4.43;3.80;;;;;;;4.77;100.00;101969.13;4986628;28;20213;-70
2022/10/07 06:30:48;;;;;;;3.93;3.50;;;;;;;4.84;100.00;101963.22;4973927;28;20489;-70
2022/10/07 06:33:16;;;;;;;6.80;4.40;;;;;;;4.90;100.00;101968.50;4983362;28;20193;-70
2022/10/07 06:35:44;;;;;;;12.30;5.33;;;;;;;4.93;100.00;101965.09;4970998;28;20720;-71
2022/10/07 06:38:11;;;;;;;8.10;3.97;;;;;;;4.96;100.00;101964.28;4969985;28;20220;-71
2022/10/07 06:40:38;;;;;;;5.67;3.57;;;;;;;5.07;100.00;101967.94;4972492;28;20202;-69
2022/10/07 06:43:05;;;;;;;7.13;4.00;;;;;;;5.18;100.00;101966.41;4973592;28;20719;-71
2022/10/07 06:45:42;;;;;;;6.47;4.27;;;;;;;5.30;100.00;101966.63;4978730;28;20220;-71
2022/10/07 06:48:11;;;;;;;6.13;4.40;;;;;;;5.39;100.00;101965.91;4975001;28;20209;-71
2022/10/07 06:50:39;;;;;;;6.40;3.50;;;;;;;5.55;100.00;101964.44;4976553;28;20209;-70
2022/10/07 06:53:05;;;;;;;4.93;3.97;;;;;;;5.68;100.00;101966.38;4966766;28;20609;-71
2022/10/07 06:55:36;;;;;;;4.00;3.60;;;;;;;5.79;100.00;101958.78;4971567;28;20300;-71
2022/10/07 06:58:02;;;;;;;6.33;3.70;;;;;;;5.97;100.00;101957.34;4966121;28;20217;-71
2022/10/07 07:00:29;;;;;;;7.57;4.20;;;;;;;6.09;100.00;101957.50;4973689;28;20765;-70
2022/10/07 07:02:55;;;;;;;6.60;4.40;;;;;;;6.23;100.00;101955.09;4969825;28;20261;-71
2022/10/07 07:05:22;;;;;;;6.43;4.57;;;;;;;6.36;100.00;101951.81;4983981;28;20205;-72
2022/10/07 07:07:51;;;;;;;10.27;8.67;;;;;;;6.48;100.00;101951.09;4972312;28;20232;-71
2022/10/07 07:10:17;;;;;;;12.60;9.23;;;;;;;6.60;100.00;101952.97;4969449;28;20243;-72
2022/10/07 07:12:47;;;;;;;36.53;24.60;;;;;;;6.77;100.00;101955.72;4974396;28;20212;-71
2022/10/07 07:15:14;;;;;;;30.27;16.07;;;;;;;6.86;100.00;101953.25;4969584;28;20547;-70
2022/10/07 07:17:40;;;;;;;47.87;34.70;;;;;;;6.99;100.00;101949.91;4971134;28;20644;-71
2022/10/07 07:20:09;;;;;;;35.97;24.33;;;;;;;7.16;100.00;101944.03;4968873;28;20285;-70
2022/10/07 07:22:36;;;;;;;33.20;23.03;;;;;;;7.32;100.00;101953.69;4971915;28;20208;-70
2022/10/07 07:25:05;;;;;;;16.10;11.90;;;;;;;7.44;100.00;101947.75;4971384;28;20206;-70
2022/10/07 07:27:32;;;;;;;11.27;9.27;;;;;;;7.58;100.00;101940.91;4965941;28;20224;-71
2022/10/07 07:29:59;;;;;;;13.17;9.57;;;;;;;7.74;100.00;101941.88;4971699;28;20261;-70
2022/10/07 07:32:26;;;;;;;12.87;8.80;;;;;;;7.85;100.00;101936.75;4984848;28;20300;-71
2022/10/07 07:34:54;;;;;;;14.83;7.77;;;;;;;7.96;100.00;101932.47;4986717;28;20215;-70
2022/10/07 07:37:21;;;;;;;8.27;6.53;;;;;;;8.09;100.00;101933.44;4975057;28;20229;-71
2022/10/07 07:39:51;;;;;;;10.77;7.43;;;;;;;8.23;100.00;101930.03;4966443;28;20234;-71
2022/10/07 07:42:20;;;;;;;11.30;6.67;;;;;;;8.38;100.00;101930.09;4971362;28;20247;-71
2022/10/07 07:44:47;;;;;;;11.60;6.37;;;;;;;8.46;100.00;101928.44;4966780;28;20201;-71
2022/10/07 07:47:16;;;;;;;14.60;8.43;;;;;;;8.58;100.00;101924.13;4984128;28;20283;-71
2022/10/07 07:49:43;;;;;;;8.57;6.07;;;;;;;8.69;100.00;101922.44;4982984;28;20239;-71
2022/10/07 07:52:14;;;;;;;9.90;5.73;;;;;;;8.83;100.00;101925.94;4966799;28;20555;-71
2022/10/07 07:54:44;;;;;;;13.30;6.97;;;;;;;8.94;100.00;101920.75;4963856;28;20293;-71
2022/10/07 07:57:11;;;;;;;10.03;7.57;;;;;;;9.06;100.00;101915.53;4983881;28;20597;-71
2022/10/07 07:59:39;;;;;;;7.70;6.03;;;;;;;9.18;100.00;101911.19;4972337;28;20311;-71
2022/10/07 08:02:07;;;;;;;12.20;6.33;;;;;;;9.30;100.00;101911.19;4971676;28;20562;-71
2022/10/07 08:04:36;;;;;;;10.47;5.57;;;;;;;9.42;100.00;101905.13;4972871;28;20209;-71
2022/10/07 08:07:03;;;;;;;8.20;5.40;;;;;;;9.54;100.00;101909.47;4969526;28;20193;-71
2022/10/07 08:09:29;;;;;;;10.70;5.43;;;;;;;9.65;100.00;101897.28;5010081;23;20233;-72
2022/10/07 08:11:56;;;;;;;10.63;5.60;;;;;;;9.71;100.00;101896.38;4990621;28;20300;-73
2022/10/07 08:14:23;;;;;;;7.87;5.53;;;;;;;9.81;100.00;101896.34;4988322;28;20201;-72
2022/10/07 08:16:56;;;;;;;8.10;5.33;;;;;;;9.92;100.00;101883.34;4990738;28;20750;-73
2022/10/07 08:19:23;;;;;;;13.67;5.37;;;;;;;10.03;100.00;101894.56;4991060;28;20309;-72
2022/10/07 08:21:50;;;;;;;10.17;5.33;;;;;;;10.19;100.00;101878.88;5000289;28;20209;-73
2022/10/07 08:24:23;;;;;;;19.90;7.13;;;;;;;10.30;100.00;101879.69;4991630;28;20500;-73
2022/10/07 08:26:50;;;;;;;14.70;5.60;;;;;;;10.38;100.00;101874.47;4991784;28;20205;-73
2022/10/07 08:29:17;;;;;;;9.50;5.73;;;;;;;10.50;100.00;101877.00;4990129;28;20537;-73
2022/10/07 08:31:44;;;;;;;12.47;4.70;;;;;;;10.62;100.00;101876.06;4989954;28;20200;-74
2022/10/07 08:34:12;;;;;;;10.90;5.20;;;;;;;10.72;100.00;101871.66;4997189;28;20202;-74
2022/10/07 08:36:42;;;;;;;13.83;5.40;;;;;;;10.81;100.00;101868.97;5006101;28;20654;-73
2022/10/07 08:39:10;;;;;;;8.23;4.47;;;;;;;10.94;100.00;101862.78;5000188;28;20496;-74
2022/10/07 08:41:54;;;;;;;9.67;5.17;;;;;;;11.08;100.00;101861.78;5008812;28;20207;-74
2022/10/07 08:44:26;;;;;;;6.87;5.13;;;;;;;11.20;100.00;101853.84;5008157;28;20203;-73
2022/10/07 08:47:06;;;;;;;8.97;5.03;;;;;;;11.35;100.00;101864.16;5007902;28;20256;-73
2022/10/07 08:49:42;;;;;;;11.77;6.83;;;;;;;11.42;100.00;101864.97;5004686;28;20273;-73
2022/10/07 08:52:33;;;;;;;15.67;8.47;;;;;;;11.53;100.00;101864.88;4997301;28;20205;-74
2022/10/07 08:55:00;;;;;;;7.93;5.87;;;;;;;11.64;100.00;101859.53;5000615;28;20706;-73
2022/10/07 08:57:44;;;;;;;13.00;5.40;;;;;;;11.77;100.00;101870.69;5005274;28;20207;-72
2022/10/07 09:00:16;;;;;;;9.10;5.67;;;;;;;11.92;100.00;101858.38;4995662;28;20223;-73
2022/10/07 09:02:59;;;;;;;5.60;4.67;;;;;;;12.05;100.00;101855.63;5003970;28;20582;-73
2022/10/07 09:05:32;;;;;;;8.20;4.57;;;;;;;12.15;100.00;101856.34;5005177;28;20200;-73
2022/10/07 09:08:04;;;;;;;5.73;4.00;;;;;;;12.29;100.00;101849.16;4999168;28;20254;-73
2022/10/07 09:10:34;;;;;;;10.90;4.90;;;;;;;12.44;100.00;101848.09;5000718;28;20185;-73
2022/10/07 09:13:04;;;;;;;6.50;3.83;;;;;;;12.53;100.00;101841.88;4990411;28;20200;-73
2022/10/07 09:15:39;;;;;;;3.13;2.60;;;;;;;12.60;100.00;101843.50;5003535;28;20662;-73
2022/10/07 09:18:13;;;;;;;5.00;2.17;;;;;;;12.74;100.00;101844.16;5011484;28;20326;-73
2022/10/07 09:20:45;;;;;;;3.07;2.00;;;;;;;12.84;100.00;101832.66;5011031;28;20197;-73
2022/10/07 09:23:14;;;;;;;2.87;1.50;;;;;;;12.92;100.00;101831.66;5013569;28;20576;-72
2022/10/07 09:25:41;;;;;;;2.33;1.33;;;;;;;13.03;100.00;101834.94;4992345;28;20196;-73
2022/10/07 09:28:12;;;;;;;2.20;1.43;;;;;;;13.12;100.00;101832.19;5004729;28;20220;-73
2022/10/07 09:30:38;;;;;;;1.67;1.40;;;;;;;13.17;100.00;101827.72;5010690;28;20750;-74
2022/10/07 09:33:09;;;;;;;1.90;1.13;;;;;;;13.28;100.00;101827.56;5013792;28;20205;-73
2022/10/07 09:35:37;;;;;;;2.73;1.53;;;;;;;13.42;100.00;101825.56;5010416;28;20204;-73
2022/10/07 09:38:08;;;;;;;4.50;1.40;;;;;;;13.43;100.00;101827.28;5007305;28;20386;-73
2022/10/07 09:41:14;;;;;;;2.80;2.17;;;;;;;13.47;100.00;101822.84;4995574;28;20480;-73
2022/10/07 09:43:27;;;;;;;3.40;2.30;;;;;;;13.63;100.00;101824.28;5012372;28;20229;-73
2022/10/07 09:45:55;;;;;;;3.20;1.40;;;;;;;13.72;100.00;101825.84;5009181;28;20656;-73
2022/10/07 09:48:27;;;;;;;3.63;1.80;;;;;;;13.82;100.00;101816.91;5007358;28;20241;-73
2022/10/07 09:51:12;;;;;;;1.27;1.10;;;;;;;13.89;100.00;101817.63;5011990;28;20579;-73
2022/10/07 09:53:56;;;;;;;1.50;1.10;;;;;;;13.98;100.00;101806.97;5009374;28;20202;-73
2022/10/07 09:56:32;;;;;;;1.40;1.03;;;;;;;14.13;100.00;101812.78;5002989;28;20200;-73
2022/10/07 09:59:16;;;;;;;1.33;0.90;;;;;;;14.19;100.00;101813.50;5003171;28;20225;-73
2022/10/07 10:01:49;;;;;;;3.23;1.20;;;;;;;14.25;100.00;101812.50;4998910;28;20202;-74
2022/10/07 10:04:16;;;;;;;2.90;1.20;;;;;;;14.35;100.00;101802.63;5013237;28;20240;-73
2022/10/07 10:06:46;;;;;;;2.90;1.00;;;;;;;14.39;100.00;101807.78;5011298;28;20249;-73
2022/10/07 10:09:19;;;;;;;3.37;1.73;;;;;;;14.43;100.00;101802.47;4993897;28;20225;-73
2022/10/07 10:11:46;;;;;;;37.50;11.50;;;;;;;14.47;100.00;101802.34;5010297;28;20262;-73
2022/10/07 10:14:36;;;;;;;12.83;4.67;;;;;;;14.51;100.00;101798.78;5013726;28;20453;-73
2022/10/07 10:17:04;;;;;;;4.50;2.57;;;;;;;14.67;100.00;101794.03;5009601;28;20561;-73
2022/10/07 10:19:30;;;;;;;3.40;2.20;;;;;;;14.78;100.00;101793.78;5009646;28;20221;-73
2022/10/07 10:21:57;;;;;;;2.07;1.80;;;;;;;14.77;100.00;101782.41;5008600;28;20205;-73
2022/10/07 10:27:22;;;;;;;3.40;1.10;;;;;;;14.94;100.00;101766.22;5005175;28;20205;-73
2022/10/07 10:29:56;;;;;;;1.03;0.93;;;;;;;14.96;100.00;101766.19;5006272;28;20223;-73
2022/10/07 10:32:53;;;;;;;1.37;1.13;;;;;;;15.03;100.00;101757.22;5002244;28;20232;-73
2022/10/07 10:35:25;;;;;;;1.30;1.20;;;;;;;15.11;100.00;101754.41;5010918;28;20687;-73
2022/10/07 10:38:29;;;;;;;1.90;1.10;;;;;;;15.24;100.00;101760.19;5003684;28;20502;-73
2022/10/07 10:41:04;;;;;;;2.73;1.67;;;;;;;15.24;100.00;101752.31;4998829;28;20757;-73
2022/10/07 10:43:37;;;;;;;3.27;1.50;;;;;;;15.28;100.00;101752.16;5003193;28;20203;-73
2022/10/07 10:46:25;;;;;;;1.23;1.00;;;;;;;15.34;100.00;101746.75;4999628;28;20567;-73
2022/10/07 10:48:55;;;;;;;2.40;1.70;;;;;;;15.39;100.00;101751.00;5003901;28;20224;-73
2022/10/07 10:51:39;;;;;;;1.90;1.30;;;;;;;15.38;100.00;101741.41;5004856;28;20201;-73
2022/10/07 10:54:19;;;;;;;1.37;1.27;;;;;;;15.49;100.00;101739.31;4997312;28;20197;-73
2022/10/07 10:56:55;;;;;;;1.87;1.23;;;;;;;15.55;100.00;101723.41;4998602;28;20283;-73
2022/10/07 10:59:45;;;;;;;1.40;1.20;;;;;;;15.60;100.00;101725.88;5007311;28;20220;-73
2022/10/07 11:02:33;;;;;;;1.57;1.10;;;;;;;15.65;100.00;101718.72;4977067;28;20205;-74
2022/10/07 11:05:04;;;;;;;2.50;1.20;;;;;;;15.70;100.00;101719.44;5005961;28;20212;-73
2022/10/07 11:07:33;;;;;;;2.00;1.40;;;;;;;15.79;100.00;101708.66;5007644;28;20219;-73
2022/10/07 11:10:05;;;;;;;2.03;1.10;;;;;;;15.86;100.00;101702.31;4992426;28;20209;-74
2022/10/07 11:12:38;;;;;;;1.30;1.20;;;;;;;15.97;100.00;101709.00;5005609;28;20279;-73
2022/10/07 11:15:13;;;;;;;3.97;1.43;;;;;;;16.04;100.00;101698.25;4999171;28;20296;-74
2022/10/07 11:17:40;;;;;;;1.80;1.37;;;;;;;16.11;100.00;101687.53;5001535;28;20492;-73
2022/10/07 11:20:17;;;;;;;2.07;1.47;;;;;;;16.09;100.00;101682.31;5006317;28;20588;-73
2022/10/07 11:22:49;;;;;;;2.67;1.23;;;;;;;16.11;100.00;101672.59;4990525;28;20240;-74
2022/10/07 11:25:25;;;;;;;1.67;1.20;;;;;;;16.22;100.00;101665.22;5005525;28;20233;-73
2022/10/07 11:27:54;;;;;;;1.07;0.93;;;;;;;16.27;100.00;101670.34;5008921;28;20228;-73
2022/10/07 11:30:23;;;;;;;2.50;1.10;;;;;;;16.31;100.00;101658.78;5009451;28;20587;-71
2022/10/07 11:32:54;;;;;;;2.63;1.20;;;;;;;16.39;100.00;101663.78;5006729;28;20204;-73
2022/10/07 11:35:28;;;;;;;3.17;1.20;;;;;;;16.39;100.00;101655.88;5007245;28;20208;-73
2022/10/07 11:38:00;;;;;;;1.10;1.00;;;;;;;16.43;100.00;101647.84;5008829;28;20234;-74
2022/10/07 11:40:33;;;;;;;2.27;1.10;;;;;;;16.46;100.00;101647.75;4997612;28;20212;-73
2022/10/07 11:43:08;;;;;;;1.97;0.90;;;;;;;16.47;100.00;101641.53;4991107;28;20622;-73
2022/10/07 11:45:41;;;;;;;2.47;1.20;;;;;;;16.51;100.00;101637.03;5005365;28;20681;-71